This is the latest recevied weather packets stored in our database for station/object N8GD. If no packets are shown the sender has not sent any weather packets the latest 1 day(s).
| Time | Temp. | Humidity | Pressure | Rain* | Wind** | Luminosity | Snow |
|---|---|---|---|---|---|---|---|
| 1777992764 | 20° C | 60% | 1007.6 hPa | 0 mm | 6.71 m/s, 248° | - | - |
| 1777991862 | 19.44° C | 63% | 1007.6 hPa | 0 mm | 3.13 m/s, 200° | - | - |
| 1777990963 | 20° C | 60% | 1007.6 hPa | 0 mm | 3.58 m/s, 270° | - | - |
| 1777990921 | 20° C | 60% | 1007.6 hPa | 0 mm | 2.24 m/s, 218° | - | - |
| 1777990064 | 20° C | 62% | 1007.8 hPa | 0 mm | 1.79 m/s, 232° | - | - |
| 1777989163 | 19.44° C | 61% | 1007.9 hPa | 0 mm | 0.89 m/s, 210° | - | - |
| 1777988263 | 19.44° C | 63% | 1007.8 hPa | 0 mm | 0.89 m/s, 226° | - | - |
| 1777987364 | 19.44° C | 63% | 1007.9 hPa | 0 mm | 2.24 m/s, 225° | - | - |
| 1777986462 | 18.89° C | 64% | 1007.8 hPa | 0 mm | 0.89 m/s, 213° | - | - |
| 1777985564 | 18.89° C | 64% | 1007.7 hPa | 0 mm | 1.34 m/s, 236° | - | - |
| 1777984662 | 18.33° C | 65% | 1007.7 hPa | 0 mm | 4.02 m/s, 222° | - | - |
| 1777983763 | 17.78° C | 67% | 1007.8 hPa | 0 mm | 0.89 m/s, 229° | - | - |
| 1777982863 | 17.22° C | 68% | 1007.8 hPa | 0 mm | 1.79 m/s, 235° | - | - |
| 1777982804 | 17.22° C | 68% | 1007.8 hPa | 0 mm | 0.45 m/s, 209° | - | - |
| 1777981963 | 16.67° C | 69% | 1007.9 hPa | 0 mm | 3.13 m/s, 212° | - | - |
| 1777981062 | 16.67° C | 70% | 1007.8 hPa | 0 mm | 0.89 m/s, 241° | - | - |
| 1777981004 | 16.67° C | 70% | 1007.8 hPa | 0 mm | 0.89 m/s, 241° | - | - |
| 1777980162 | 16.67° C | 70% | 1007.8 hPa | 0 mm | 0.89 m/s, 231° | - | - |
| 1777979263 | 16.67° C | 70% | 1007.8 hPa | 0 mm | 1.34 m/s, 212° | - | - |
| 1777979208 | 16.67° C | 70% | 1007.8 hPa | 0 mm | 1.34 m/s, 233° | - | - |
| 1777978364 | 16.67° C | 71% | 1007.4 hPa | 0 mm | 3.13 m/s, 187° | - | - |
| 1777977462 | 16.11° C | 72% | 1007.2 hPa | 0 mm | 0.45 m/s, 236° | - | - |
| 1777976563 | 16.11° C | 73% | 1007.2 hPa | 0 mm | 0.45 m/s, 219° | - | - |
| 1777975663 | 16.11° C | 74% | 1007 hPa | 0 mm | 0.45 m/s, 265° | - | - |
| 1777975607 | 16.11° C | 74% | 1007 hPa | 0 mm | 0.45 m/s, 235° | - | - |
* Rain latest hour (hover to see other rain measurements)
** Current wind speed in m/s (hover to see current wind gust speed)